Startpagina
METAR-TAF:

METAR-TAF

Vliegvelden :

Fort-de-France, Martinique

breedte: 14-36N, lengte: 061-00W, hoogte: 5 m

Actueel weer

Dit bericht is 32 minuten geleden gemaakt, om 03:00 UTC
Wind 7 kt uit het oosten
Temperatuur 26°C
Vochtigheid 84%
Druk 1014 hPa
Zicht 10 km of meer
geen wolken onder 1500 m en geen cumulonimbus

METAR: TFFF 230300Z AUTO 09007KT CAVOK 26/23 Q1014 TEMPO 4000 SHRA SCT018TCU

Tijdstip: 23:32 (03:32 UTC)

Verwachting

Dit bericht is 4 uur en het 32 minuten geleden gemaakt, om 23:00 UTC
Verwachting geldig van 23 om 00 UTC tot 23 om 24 UTC
Wind 10 kt uit het oosten
Zicht 10 km of meer
Verspreide wolken op 2500 ft
Verspreide wolken op 6000 ft
Kans 40% :
Tijdelijke
van 23 om 00 UTC tot 23 om 24 UTC
Zicht: 4000 m
Verspreide wolken op 1800 ft, Stapelwolken.
regenbuien

TAF: TFFF 222300Z 2300/2324 09010KT 9999 SCT025 SCT060 PROB40 TEMPO 2300/2324 4000 SHRA SCT018TCU

Waarnemingen en weersverwachtingen van meer dan 4000 vliegvelden (METAR en TAF).

De beschikbare stations zijn de gele en rode punten op de kaart.

Ga met uw muis naar het station om de naam te zien.

Klik dan om waarnemingen en weersverwachtingen te zien.

kaart wijzigen: klik op de groene knoppen met een zwart kruis om in te zoomen, op de groene knop met een streepje om uit te zoomen of op de groene pijlen voor aangrenzende kaarten.


METAR-TAF: